createdAt,value
2019-04-22T00:00:54.181Z,61
2019-04-22T00:01:56.795Z,61
2019-04-22T00:02:58.051Z,61
2019-04-22T00:04:01.250Z,61
2019-04-22T00:05:04.578Z,61
2019-04-22T00:06:11.349Z,61
2019-04-22T00:07:15.398Z,61
2019-04-22T00:08:16.276Z,61
2019-04-22T00:09:17.022Z,61
2019-04-22T00:10:19.176Z,62
2019-04-22T00:11:24.943Z,62
2019-04-22T00:12:19.314Z,62
2019-04-22T00:13:25.697Z,62
2019-04-22T00:14:11.488Z,62
2019-04-22T00:15:15.079Z,62
2019-04-22T00:16:14.149Z,63
2019-04-22T00:17:21.835Z,63
2019-04-22T00:18:19.673Z,63
2019-04-22T00:19:20.488Z,63
2019-04-22T00:20:29.773Z,63
2019-04-22T00:21:19.300Z,63
2019-04-22T00:22:21.924Z,63
2019-04-22T00:23:18.244Z,63
2019-04-22T00:24:16.818Z,64
2019-04-22T00:25:19.199Z,63
2019-04-22T00:26:22.268Z,64
2019-04-22T00:28:21.325Z,64
2019-04-22T00:30:20.275Z,64
2019-04-22T00:31:20.517Z,64
2019-04-22T00:32:17.844Z,64
2019-04-22T00:33:20.282Z,64
2019-04-22T00:34:15.701Z,64
2019-04-22T00:35:17.711Z,64
2019-04-22T00:36:21.533Z,63
2019-04-22T00:37:22.623Z,63
2019-04-22T00:38:23.268Z,63
2019-04-22T00:39:19.823Z,63
2019-04-22T00:40:19.447Z,64
2019-04-22T00:41:19.019Z,63
2019-04-22T00:42:20.696Z,63
2019-04-22T00:43:19.046Z,64
2019-04-22T00:44:25.322Z,64
2019-04-22T00:45:18.935Z,63
2019-04-22T00:46:17.391Z,63
2019-04-22T00:47:22.753Z,63
2019-04-22T00:49:58.047Z,64
2019-04-22T00:50:36.883Z,64
2019-04-22T00:51:22.312Z,64
2019-04-22T00:52:21.582Z,64
2019-04-22T00:53:22.327Z,64
2019-04-22T00:54:21.261Z,64
2019-04-22T00:55:17.963Z,64
2019-04-22T00:56:15.574Z,64
2019-04-22T00:57:21.042Z,64
2019-04-22T00:58:23.887Z,64
2019-04-22T00:59:16.833Z,64
2019-04-22T01:00:17.465Z,64
2019-04-22T01:01:18.725Z,64
2019-04-22T01:02:20.050Z,64
2019-04-22T01:03:25.761Z,64
2019-04-22T01:04:27.279Z,64
2019-04-22T01:05:21.209Z,65
2019-04-22T01:06:19.838Z,65
2019-04-22T01:07:47.728Z,65
2019-04-22T01:08:20.896Z,65
2019-04-22T01:09:16.723Z,65
2019-04-22T01:10:25.011Z,65
2019-04-22T01:11:22.526Z,65
2019-04-22T01:12:19.480Z,65
2019-04-22T01:13:18.398Z,65
2019-04-22T01:14:21.492Z,65
2019-04-22T01:15:23.166Z,66
2019-04-22T01:16:22.486Z,66
2019-04-22T01:17:11.284Z,66
2019-04-22T01:18:15.502Z,66
2019-04-22T01:19:21.079Z,66
2019-04-22T01:20:45.071Z,66
2019-04-22T01:21:22.467Z,66
2019-04-22T01:22:20.288Z,66
2019-04-22T01:23:17.799Z,66
2019-04-22T01:24:15.558Z,66
2019-04-22T01:25:18.777Z,66
2019-04-22T01:26:09.293Z,66
2019-04-22T01:27:11.284Z,66
2019-04-22T01:28:10.740Z,66
2019-04-22T01:29:10.843Z,66
2019-04-22T01:30:09.365Z,67
2019-04-22T01:31:04.624Z,67
2019-04-22T01:31:58.079Z,66
2019-04-22T01:33:05.541Z,67
2019-04-22T01:34:09.833Z,67
2019-04-22T01:35:12.699Z,67
2019-04-22T01:36:13.520Z,67
2019-04-22T01:37:13.542Z,67
2019-04-22T01:38:13.034Z,67
2019-04-22T01:39:19.862Z,66
2019-04-22T01:40:23.633Z,66
2019-04-22T01:41:22.817Z,66
2019-04-22T01:42:15.574Z,66
2019-04-22T01:43:24.406Z,66
2019-04-22T01:44:28.635Z,66
2019-04-22T01:45:24.579Z,66
2019-04-22T01:46:24.559Z,66
2019-04-22T01:47:24.431Z,67
2019-04-22T01:48:25.902Z,66
2019-04-22T01:49:21.018Z,66
2019-04-22T01:50:25.661Z,66
2019-04-22T01:51:28.099Z,66
2019-04-22T01:52:19.845Z,66
2019-04-22T01:53:26.916Z,65
2019-04-22T01:54:29.176Z,66
2019-04-22T01:55:24.428Z,66
2019-04-22T01:56:27.056Z,66
2019-04-22T01:57:22.110Z,66
2019-04-22T01:58:16.765Z,66
2019-04-22T01:59:14.921Z,66
2019-04-22T02:00:15.053Z,66
2019-04-22T02:01:21.917Z,66
2019-04-22T02:02:21.978Z,66
2019-04-22T02:03:25.410Z,66
2019-04-22T02:04:25.441Z,66
2019-04-22T02:05:22.607Z,66
2019-04-22T02:06:21.711Z,67
2019-04-22T02:07:23.295Z,68
2019-04-22T02:08:30.753Z,69
2019-04-22T02:09:30.954Z,69
2019-04-22T02:10:27.918Z,68
2019-04-22T02:11:25.381Z,68
2019-04-22T02:12:25.515Z,67
2019-04-22T02:13:21.181Z,68
2019-04-22T02:14:26.730Z,68
2019-04-22T02:15:23.149Z,69
2019-04-22T02:16:27.169Z,69
2019-04-22T02:17:24.820Z,69
2019-04-22T02:18:37.600Z,68
2019-04-22T02:19:30.165Z,67
2019-04-22T02:20:24.806Z,68
2019-04-22T02:21:19.990Z,69
2019-04-22T02:22:28.578Z,68
2019-04-22T02:24:25.910Z,67
2019-04-22T02:25:23.478Z,67
2019-04-22T02:26:25.179Z,67
2019-04-22T02:27:31.926Z,67
2019-04-22T02:28:32.075Z,68
2019-04-22T02:29:28.609Z,68
2019-04-22T02:30:33.074Z,68
2019-04-22T02:32:38.544Z,67
2019-04-22T02:33:51.077Z,67
2019-04-22T02:34:32.314Z,68
2019-04-22T02:35:23.160Z,68
2019-04-22T02:36:28.894Z,68
2019-04-22T02:37:22.592Z,68
2019-04-22T02:38:43.965Z,68
2019-04-22T02:39:23.452Z,67
2019-04-22T02:40:29.990Z,67
2019-04-22T02:42:31.584Z,67
2019-04-22T02:43:43.264Z,67
2019-04-22T02:44:27.768Z,67
2019-04-22T02:45:36.751Z,67
2019-04-22T02:46:52.218Z,67
2019-04-22T02:48:45.387Z,67
2019-04-22T02:49:28.867Z,67
2019-04-22T02:50:27.854Z,67
2019-04-22T02:54:00.331Z,68
2019-04-22T02:54:38.104Z,68
2019-04-22T02:55:14.667Z,68
2019-04-22T02:56:35.740Z,68
2019-04-22T02:57:39.080Z,68
2019-04-22T02:58:37.062Z,68
2019-04-22T02:59:30.686Z,68
2019-04-22T03:00:37.036Z,68
2019-04-22T03:01:35.917Z,68
2019-04-22T03:02:50.359Z,68
2019-04-22T03:03:40.338Z,68
2019-04-22T03:04:27.952Z,68
2019-04-22T03:05:36.240Z,69
2019-04-22T03:06:34.484Z,69
2019-04-22T03:08:29.067Z,69
2019-04-22T03:09:37.688Z,69
2019-04-22T03:10:36.930Z,69
2019-04-22T03:11:32.725Z,70
2019-04-22T03:13:37.437Z,70
2019-04-22T03:14:29.499Z,70
2019-04-22T03:15:29.591Z,70
2019-04-22T03:16:31.663Z,70
2019-04-22T03:17:28.421Z,70
2019-04-22T03:19:44.151Z,70
2019-04-22T03:20:24.040Z,70
2019-04-22T03:21:23.677Z,70
2019-04-22T03:22:27.794Z,70
2019-04-22T03:24:33.032Z,70
2019-04-22T03:25:58.402Z,70
2019-04-22T03:26:31.651Z,71
2019-04-22T03:27:29.295Z,71
2019-04-22T03:28:36.876Z,71
2019-04-22T03:29:27.865Z,71
2019-04-22T03:33:51.210Z,71
2019-04-22T03:35:18.754Z,71
2019-04-22T03:37:42.700Z,72
2019-04-22T03:38:40.834Z,72
2019-04-22T03:39:50.276Z,71
2019-04-22T03:40:36.211Z,72
2019-04-22T03:42:43.403Z,72
2019-04-22T03:43:41.929Z,72
2019-04-22T03:45:27.545Z,72
2019-04-22T03:46:29.819Z,72
2019-04-22T03:48:35.696Z,72
2019-04-22T03:49:36.446Z,72
2019-04-22T03:50:35.923Z,72
2019-04-22T03:51:45.450Z,71
2019-04-22T03:52:44.332Z,71
2019-04-22T03:53:47.891Z,71
2019-04-22T03:54:38.949Z,71
2019-04-22T03:55:20.949Z,71
2019-04-22T03:57:06.728Z,71
2019-04-22T03:57:45.556Z,71
2019-04-22T03:58:27.819Z,71
2019-04-22T03:59:41.022Z,71
2019-04-22T04:00:42.805Z,72
2019-04-22T04:02:21.164Z,72
2019-04-22T04:03:28.038Z,72
2019-04-22T04:04:32.454Z,72
2019-04-22T04:06:39.465Z,72
2019-04-22T04:08:32.634Z,72
2019-04-22T04:09:23.570Z,72
2019-04-22T04:11:42.567Z,73
2019-04-22T04:12:23.173Z,73
2019-04-22T04:13:33.022Z,73
2019-04-22T04:14:35.290Z,73
2019-04-22T04:16:38.568Z,73
2019-04-22T04:17:36.239Z,73
2019-04-22T04:18:39.061Z,72
2019-04-22T04:21:32.686Z,73
2019-04-22T04:22:51.973Z,74
2019-04-22T04:23:28.388Z,74
2019-04-22T04:24:43.791Z,74
2019-04-22T04:25:26.428Z,74
2019-04-22T04:26:45.051Z,74
2019-04-22T04:28:39.198Z,74
2019-04-22T04:29:44.989Z,74
2019-04-22T04:30:18.536Z,74
2019-04-22T04:32:33.883Z,74
2019-04-22T04:33:28.634Z,74
2019-04-22T04:34:27.941Z,74
2019-04-22T04:36:33.884Z,73
2019-04-22T04:38:28.533Z,73
2019-04-22T04:39:33.972Z,73
2019-04-22T04:40:30.964Z,74
2019-04-22T04:41:24.639Z,74
2019-04-22T04:42:38.306Z,74
2019-04-22T04:43:34.837Z,74
2019-04-22T04:44:47.579Z,73
2019-04-22T04:45:31.542Z,74
2019-04-22T04:48:41.764Z,74
2019-04-22T04:49:43.324Z,74
2019-04-22T04:50:46.777Z,74
2019-04-22T04:51:55.395Z,74
2019-04-22T04:52:38.366Z,74
2019-04-22T04:53:24.260Z,74
2019-04-22T04:54:35.314Z,74
2019-04-22T04:55:21.923Z,74
2019-04-22T04:56:35.737Z,74
2019-04-22T04:57:43.188Z,74
2019-04-22T05:01:35.014Z,73
2019-04-22T05:04:46.217Z,73
2019-04-22T05:05:31.235Z,73
2019-04-22T05:07:35.819Z,72
2019-04-22T05:08:51.122Z,72
2019-04-22T05:10:49.080Z,73
2019-04-22T05:11:22.370Z,73
2019-04-22T05:12:44.823Z,73
2019-04-22T05:13:38.978Z,72
2019-04-22T05:14:23.889Z,73
2019-04-22T05:15:29.215Z,73
2019-04-22T05:16:40.107Z,74
2019-04-22T05:17:34.713Z,73
2019-04-22T05:19:46.302Z,73
2019-04-22T05:20:40.355Z,73
2019-04-22T05:21:29.326Z,73
2019-04-22T05:23:29.834Z,73
2019-04-22T05:24:27.952Z,73
2019-04-22T05:26:32.359Z,73
2019-04-22T05:27:33.931Z,73
2019-04-22T05:28:29.795Z,73
2019-04-22T05:29:16.797Z,73
2019-04-22T05:31:31.964Z,73
2019-04-22T05:32:30.526Z,73
2019-04-22T05:33:27.310Z,73
2019-04-22T05:34:27.846Z,73
2019-04-22T05:36:27.906Z,73
2019-04-22T05:37:26.880Z,73
2019-04-22T05:38:32.882Z,73
2019-04-22T05:39:28.118Z,73
2019-04-22T05:40:27.866Z,72
2019-04-22T05:41:28.557Z,73
2019-04-22T05:42:17.510Z,73
2019-04-22T05:43:27.069Z,72
2019-04-22T05:44:29.260Z,72
2019-04-22T05:45:24.608Z,72
2019-04-22T05:46:28.132Z,73
2019-04-22T05:47:25.249Z,73
2019-04-22T05:48:32.887Z,72
2019-04-22T05:49:28.548Z,72
2019-04-22T05:50:22.710Z,72
2019-04-22T05:51:30.927Z,72
2019-04-22T05:52:24.671Z,72
2019-04-22T05:53:25.240Z,72
2019-04-22T05:54:27.168Z,73
2019-04-22T05:55:41.360Z,73
2019-04-22T05:56:26.575Z,73
2019-04-22T05:57:30.863Z,73
2019-04-22T05:58:29.143Z,72
2019-04-22T05:59:30.604Z,72
2019-04-22T06:00:40.238Z,73
2019-04-22T06:02:39.118Z,72
2019-04-22T06:03:28.204Z,73
2019-04-22T06:04:29.172Z,72
2019-04-22T06:05:30.140Z,72
2019-04-22T06:06:28.591Z,72
2019-04-22T06:07:26.074Z,72
2019-04-22T06:08:28.946Z,72
2019-04-22T06:09:28.251Z,72
2019-04-22T06:10:32.510Z,72
2019-04-22T06:11:58.459Z,72
2019-04-22T06:12:25.844Z,72
2019-04-22T06:13:23.158Z,71
2019-04-22T06:14:24.482Z,71
2019-04-22T06:15:28.645Z,71
2019-04-22T06:16:30.489Z,71
2019-04-22T06:17:29.890Z,70
2019-04-22T06:18:33.104Z,70
2019-04-22T06:19:24.299Z,70
2019-04-22T06:20:32.021Z,70
2019-04-22T06:21:32.533Z,69
2019-04-22T06:22:36.883Z,69
2019-04-22T06:23:34.214Z,70
2019-04-22T06:24:27.108Z,69
2019-04-22T06:25:36.505Z,69
2019-04-22T06:26:37.370Z,69
2019-04-22T06:27:32.597Z,69
2019-04-22T06:28:34.644Z,69
2019-04-22T06:29:29.680Z,69
2019-04-22T06:30:28.223Z,68
2019-04-22T06:31:32.010Z,68
2019-04-22T06:33:33.669Z,68
2019-04-22T06:34:35.548Z,68
2019-04-22T06:35:36.078Z,68
2019-04-22T06:36:35.746Z,69
2019-04-22T06:37:33.501Z,68
2019-04-22T06:39:27.662Z,67
2019-04-22T06:40:31.353Z,66
2019-04-22T06:41:27.111Z,66
2019-04-22T06:42:34.644Z,65
2019-04-22T06:43:34.777Z,64
2019-04-22T06:44:29.415Z,63
2019-04-22T06:45:28.456Z,63
2019-04-22T06:46:33.450Z,63
2019-04-22T06:47:43.682Z,62
2019-04-22T06:48:29.359Z,61
2019-04-22T06:50:35.637Z,61
2019-04-22T06:51:32.079Z,58
2019-04-22T06:52:27.796Z,57
2019-04-22T06:53:23.554Z,60
2019-04-22T06:54:32.388Z,58
2019-04-22T06:55:35.293Z,56
2019-04-22T06:56:26.989Z,56
2019-04-22T06:57:30.097Z,54
2019-04-22T06:58:28.100Z,54
2019-04-22T06:59:30.999Z,53
2019-04-22T07:00:30.350Z,53
2019-04-22T07:01:48.481Z,52
2019-04-22T07:04:41.413Z,49
2019-04-22T07:05:32.409Z,51
2019-04-22T07:06:41.414Z,52
2019-04-22T07:07:30.970Z,48
2019-04-22T07:08:59.097Z,48
2019-04-22T07:09:34.809Z,47
2019-04-22T07:10:34.752Z,46
2019-04-22T07:11:29.437Z,45
2019-04-22T07:12:28.633Z,46
2019-04-22T07:14:28.067Z,46
2019-04-22T07:17:35.332Z,44
2019-04-22T07:19:33.142Z,44
2019-04-22T07:21:30.226Z,45
2019-04-22T07:22:44.819Z,45
2019-04-22T07:23:32.906Z,47
2019-04-22T07:24:40.207Z,46
2019-04-22T07:25:28.923Z,44
2019-04-22T07:26:28.879Z,46
2019-04-22T07:27:27.042Z,46
2019-04-22T07:28:22.557Z,43
2019-04-22T07:29:32.126Z,41
2019-04-22T07:30:31.055Z,42
2019-04-22T07:32:53.013Z,40
2019-04-22T07:35:35.706Z,41
2019-04-22T07:36:45.374Z,44
2019-04-22T07:37:36.636Z,41
2019-04-22T07:39:29.562Z,41
2019-04-22T07:40:33.908Z,40
2019-04-22T07:41:31.576Z,38
2019-04-22T07:42:30.894Z,37
2019-04-22T07:43:51.300Z,36
2019-04-22T07:44:30.701Z,38
2019-04-22T07:45:24.938Z,35
2019-04-22T07:47:37.278Z,36
2019-04-22T07:48:37.378Z,33
2019-04-22T07:50:42.595Z,34
2019-04-22T07:51:32.514Z,34
2019-04-22T07:52:33.262Z,34
2019-04-22T07:53:27.604Z,34
2019-04-22T07:54:31.410Z,36
2019-04-22T07:55:32.027Z,36
2019-04-22T07:56:36.177Z,33
2019-04-22T07:57:32.202Z,36
2019-04-22T07:58:28.528Z,34
2019-04-22T07:59:33.713Z,32
2019-04-22T08:00:33.937Z,31
2019-04-22T08:01:30.374Z,30
2019-04-22T08:02:37.238Z,30
2019-04-22T08:03:37.098Z,30
2019-04-22T08:04:48.716Z,30
2019-04-22T08:05:32.653Z,30
2019-04-22T08:06:27.900Z,30
2019-04-22T08:08:28.601Z,31
2019-04-22T08:09:35.433Z,30
2019-04-22T08:10:36.636Z,28
2019-04-22T08:11:43.320Z,29
2019-04-22T08:13:34.014Z,30
2019-04-22T08:14:34.266Z,30
2019-04-22T08:15:32.206Z,32
2019-04-22T08:16:28.249Z,31
2019-04-22T08:17:51.730Z,30
2019-04-22T08:18:33.898Z,29
2019-04-22T08:19:34.890Z,30
2019-04-22T08:20:33.222Z,31
2019-04-22T08:21:29.358Z,31
2019-04-22T08:22:33.751Z,31
2019-04-22T08:23:35.156Z,31
2019-04-22T08:24:35.413Z,29
2019-04-22T08:25:31.248Z,30
2019-04-22T08:26:31.616Z,31
2019-04-22T08:27:34.958Z,29
2019-04-22T08:28:37.710Z,29
2019-04-22T08:29:44.904Z,30
2019-04-22T08:30:39.431Z,30
2019-04-22T08:31:35.089Z,31
2019-04-22T08:32:34.328Z,31
2019-04-22T08:33:39.580Z,29
2019-04-22T08:34:29.036Z,28
2019-04-22T08:36:40.327Z,28
2019-04-22T08:37:50.610Z,28
2019-04-22T08:38:35.268Z,28
2019-04-22T08:39:30.801Z,27
2019-04-22T08:40:35.973Z,27
2019-04-22T08:41:50.747Z,27
2019-04-22T08:42:42.730Z,29
2019-04-22T08:44:50.715Z,29
2019-04-22T08:45:31.631Z,27
2019-04-22T08:47:30.567Z,28
2019-04-22T08:48:35.971Z,28
2019-04-22T08:49:40.687Z,28
2019-04-22T08:50:33.184Z,28
2019-04-22T08:51:29.138Z,28
2019-04-22T08:52:33.443Z,28
2019-04-22T08:53:39.669Z,27
2019-04-22T08:54:35.637Z,28
2019-04-22T08:55:38.046Z,28
2019-04-22T08:56:44.843Z,30
2019-04-22T08:57:46.700Z,29
2019-04-22T08:58:31.006Z,26
2019-04-22T08:59:27.772Z,27
2019-04-22T09:00:43.443Z,27
2019-04-22T09:01:32.543Z,26
2019-04-22T09:02:38.413Z,26
2019-04-22T09:03:30.191Z,27
2019-04-22T09:04:28.977Z,26
2019-04-22T09:05:48.193Z,26
2019-04-22T09:06:49.002Z,25
2019-04-22T09:07:36.058Z,26
2019-04-22T09:08:33.625Z,25
2019-04-22T09:09:37.707Z,24
2019-04-22T09:10:37.265Z,24
2019-04-22T09:11:34.807Z,23
2019-04-22T09:13:34.984Z,25
2019-04-22T09:15:33.900Z,26
2019-04-22T09:17:34.225Z,24
2019-04-22T09:18:34.293Z,24
2019-04-22T09:19:28.250Z,23
2019-04-22T09:20:40.118Z,23
2019-04-22T09:21:37.626Z,23
2019-04-22T09:22:32.109Z,24
2019-04-22T09:23:36.676Z,23
2019-04-22T09:25:34.074Z,24
2019-04-22T09:26:35.875Z,24
2019-04-22T09:27:37.901Z,23
2019-04-22T09:28:37.499Z,23
2019-04-22T09:29:39.410Z,23
2019-04-22T09:30:39.662Z,23
2019-04-22T09:31:35.183Z,23
2019-04-22T09:32:37.630Z,24
2019-04-22T09:33:31.187Z,23
2019-04-22T09:35:35.962Z,23
2019-04-22T09:36:40.513Z,23
2019-04-22T09:37:38.872Z,22
2019-04-22T09:38:37.427Z,22
2019-04-22T09:40:34.062Z,22
2019-04-22T09:41:38.806Z,22
2019-04-22T09:42:38.723Z,23
2019-04-22T09:43:39.847Z,24
2019-04-22T09:44:35.777Z,23
2019-04-22T09:45:33.944Z,24
2019-04-22T09:47:39.866Z,24
2019-04-22T09:48:36.917Z,24
2019-04-22T09:49:44.113Z,25
2019-04-22T09:50:51.739Z,23
2019-04-22T09:51:30.555Z,24
2019-04-22T09:52:35.463Z,23
2019-04-22T09:53:35.915Z,23
2019-04-22T09:55:33.985Z,24
2019-04-22T09:56:37.160Z,25
2019-04-22T09:57:31.005Z,24
2019-04-22T09:58:39.265Z,23
2019-04-22T09:59:34.516Z,23
2019-04-22T10:00:37.241Z,23
2019-04-22T10:01:56.666Z,23
2019-04-22T10:02:40.447Z,23
2019-04-22T10:03:36.131Z,24
2019-04-22T10:04:39.304Z,23
2019-04-22T10:05:40.509Z,22
2019-04-22T10:06:33.194Z,24
2019-04-22T10:07:31.624Z,23
2019-04-22T10:08:40.479Z,23
2019-04-22T10:09:59.056Z,21
2019-04-22T10:11:37.480Z,21
2019-04-22T10:12:36.121Z,22
2019-04-22T10:13:40.413Z,22
2019-04-22T10:14:37.888Z,21
2019-04-22T10:15:38.902Z,21
2019-04-22T10:16:36.910Z,21
2019-04-22T10:17:36.320Z,21
2019-04-22T10:18:38.552Z,21
2019-04-22T10:19:35.699Z,22
2019-04-22T10:20:37.665Z,21
2019-04-22T10:21:44.077Z,22
2019-04-22T10:23:37.401Z,23
2019-04-22T10:24:31.763Z,23
2019-04-22T10:25:34.588Z,23
2019-04-22T10:26:38.724Z,23
2019-04-22T10:27:32.230Z,23
2019-04-22T10:28:38.346Z,23
2019-04-22T10:29:41.369Z,23
2019-04-22T10:30:42.806Z,23
2019-04-22T10:32:35.169Z,23
2019-04-22T10:33:30.522Z,24
2019-04-22T10:34:24.357Z,22
2019-04-22T10:35:16.871Z,23
2019-04-22T10:36:13.116Z,22
2019-04-22T10:37:16.580Z,23
2019-04-22T10:38:12.342Z,23
2019-04-22T10:39:12.633Z,22
2019-04-22T10:40:13.551Z,22
2019-04-22T10:41:14.509Z,22
2019-04-22T10:42:13.280Z,23
2019-04-22T10:43:12.406Z,21
2019-04-22T10:44:12.996Z,23
2019-04-22T10:45:12.493Z,21
2019-04-22T10:46:13.806Z,22
2019-04-22T10:47:13.852Z,23
2019-04-22T10:48:12.529Z,21
2019-04-22T10:49:15.887Z,22
2019-04-22T10:50:12.619Z,21
2019-04-22T10:51:12.781Z,22
2019-04-22T10:52:12.973Z,21
2019-04-22T10:53:13.294Z,23
2019-04-22T10:54:13.480Z,22
2019-04-22T10:55:15.301Z,22
2019-04-22T10:56:12.868Z,22
2019-04-22T10:57:13.949Z,20
2019-04-22T10:58:13.026Z,20
2019-04-22T10:59:14.174Z,21
2019-04-22T11:00:13.590Z,21
2019-04-22T11:01:13.585Z,20
2019-04-22T11:02:13.699Z,21
2019-04-22T11:03:16.165Z,23
2019-04-22T11:04:15.677Z,21
2019-04-22T11:05:14.425Z,22
2019-04-22T11:06:13.282Z,22
2019-04-22T11:07:14.883Z,22
2019-04-22T11:08:20.120Z,22
2019-04-22T11:09:14.208Z,23
2019-04-22T11:10:27.200Z,23
2019-04-22T11:11:25.581Z,23
2019-04-22T11:12:17.431Z,22
2019-04-22T11:13:13.750Z,22
2019-04-22T11:14:14.698Z,21
2019-04-22T11:15:13.889Z,20
2019-04-22T11:16:13.857Z,21
2019-04-22T11:17:13.689Z,21
2019-04-22T11:18:13.686Z,21
2019-04-22T11:19:17.171Z,21
2019-04-22T11:20:13.763Z,21
2019-04-22T11:21:13.804Z,21
2019-04-22T11:22:20.400Z,22
2019-04-22T11:23:14.370Z,21
2019-04-22T11:24:14.830Z,20
2019-04-22T11:25:13.870Z,20
2019-04-22T11:26:13.794Z,21
2019-04-22T11:27:14.845Z,21
2019-04-22T11:28:15.968Z,21
2019-04-22T11:29:14.080Z,21
2019-04-22T11:30:17.157Z,21
2019-04-22T11:31:14.668Z,21
2019-04-22T11:32:14.831Z,21
2019-04-22T11:33:14.380Z,22
2019-04-22T11:34:15.322Z,21
2019-04-22T11:35:14.134Z,22
2019-04-22T11:36:15.594Z,21
2019-04-22T11:37:14.639Z,21
2019-04-22T11:38:14.983Z,20
2019-04-22T11:39:16.798Z,20
2019-04-22T11:40:22.194Z,20
2019-04-22T11:42:16.244Z,20
2019-04-22T11:43:16.385Z,21
2019-04-22T11:44:15.043Z,21
2019-04-22T11:45:15.255Z,21
2019-04-22T11:46:15.602Z,21
2019-04-22T11:47:15.082Z,23
2019-04-22T11:48:15.422Z,22
2019-04-22T11:49:14.423Z,22
2019-04-22T11:50:15.580Z,21
2019-04-22T11:51:15.817Z,22
2019-04-22T11:52:16.470Z,23
2019-04-22T11:53:14.474Z,22
2019-04-22T11:54:14.748Z,22
2019-04-22T11:55:14.921Z,22
2019-04-22T11:56:14.546Z,24
2019-04-22T11:57:15.030Z,23
2019-04-22T11:58:14.966Z,23
2019-04-22T11:59:15.024Z,23
2019-04-22T12:00:14.743Z,23
2019-04-22T12:01:14.918Z,23
2019-04-22T12:02:16.172Z,23
2019-04-22T12:03:14.828Z,23
2019-04-22T12:04:15.840Z,22
2019-04-22T12:05:15.888Z,23
2019-04-22T12:06:15.784Z,23
2019-04-22T12:07:15.025Z,22
2019-04-22T12:08:15.437Z,22
2019-04-22T12:09:17.617Z,24
2019-04-22T12:10:25.254Z,25
2019-04-22T12:11:14.703Z,25
2019-04-22T12:12:15.911Z,25
2019-04-22T12:13:15.753Z,24
2019-04-22T12:14:15.855Z,24
2019-04-22T12:15:15.022Z,23
2019-04-22T12:16:14.726Z,23
2019-04-22T12:17:15.956Z,25
2019-04-22T12:18:15.273Z,25
2019-04-22T12:19:15.621Z,25
2019-04-22T12:20:16.414Z,24
2019-04-22T12:21:15.250Z,24
2019-04-22T12:22:15.323Z,24
2019-04-22T12:23:14.876Z,23
2019-04-22T12:24:15.218Z,24
2019-04-22T12:25:22.243Z,25
2019-04-22T12:26:18.482Z,25
2019-04-22T12:27:17.410Z,24
2019-04-22T12:28:15.194Z,24
2019-04-22T12:29:15.453Z,25
2019-04-22T12:30:16.691Z,24
2019-04-22T12:31:15.498Z,25
2019-04-22T12:32:15.721Z,26
2019-04-22T12:33:15.125Z,26
2019-04-22T12:34:15.549Z,25
2019-04-22T12:35:17.729Z,24
2019-04-22T12:36:15.292Z,25
2019-04-22T12:37:24.689Z,26
2019-04-22T12:38:16.928Z,26
2019-04-22T12:39:15.693Z,26
2019-04-22T12:40:26.777Z,26
2019-04-22T12:41:16.015Z,26
2019-04-22T12:42:15.638Z,26
2019-04-22T12:43:18.494Z,26
2019-04-22T12:44:15.739Z,26
2019-04-22T12:45:16.229Z,26
2019-04-22T12:46:16.318Z,25
2019-04-22T12:47:15.843Z,26
2019-04-22T12:48:17.066Z,26
2019-04-22T12:49:16.262Z,26
2019-04-22T12:50:22.344Z,25
2019-04-22T12:51:16.031Z,26
2019-04-22T12:52:23.883Z,25
2019-04-22T12:53:18.610Z,26
2019-04-22T12:54:17.087Z,26
2019-04-22T12:55:17.413Z,27
2019-04-22T12:56:17.390Z,27
2019-04-22T12:57:16.784Z,26
2019-04-22T12:58:17.944Z,27
2019-04-22T12:59:17.256Z,26
2019-04-22T13:00:17.630Z,26
2019-04-22T13:01:16.963Z,27
2019-04-22T13:02:16.529Z,27
2019-04-22T13:03:17.823Z,27
2019-04-22T13:04:19.184Z,26
2019-04-22T13:05:16.631Z,26
2019-04-22T13:06:17.505Z,27
2019-04-22T13:07:17.670Z,27
2019-04-22T13:08:18.017Z,26
2019-04-22T13:09:18.035Z,27
2019-04-22T13:10:17.753Z,27
2019-04-22T13:11:20.166Z,26
2019-04-22T13:12:17.207Z,27
2019-04-22T13:13:16.997Z,26
2019-04-22T13:14:17.050Z,27
2019-04-22T13:15:18.113Z,27
2019-04-22T13:16:17.510Z,26
2019-04-22T13:17:17.205Z,27
2019-04-22T13:18:27.580Z,26
2019-04-22T13:19:19.307Z,26
2019-04-22T13:20:19.807Z,26
2019-04-22T13:21:18.501Z,27
2019-04-22T13:22:18.732Z,27
2019-04-22T13:23:17.951Z,27
2019-04-22T13:24:19.802Z,27
2019-04-22T13:25:17.682Z,26
2019-04-22T13:26:18.864Z,26
2019-04-22T13:27:22.029Z,27
2019-04-22T13:28:19.017Z,26
2019-04-22T13:29:19.109Z,27
2019-04-22T13:30:18.564Z,27
2019-04-22T13:31:20.445Z,27
2019-04-22T13:32:18.607Z,27
2019-04-22T13:33:19.016Z,27
2019-04-22T13:34:25.591Z,27
2019-04-22T13:35:19.927Z,28
2019-04-22T13:36:20.448Z,27
2019-04-22T13:37:19.105Z,27
2019-04-22T13:38:18.971Z,27
2019-04-22T13:39:18.760Z,27
2019-04-22T13:40:19.027Z,27
2019-04-22T13:41:28.809Z,27
2019-04-22T13:42:20.271Z,28
2019-04-22T13:43:18.758Z,28
2019-04-22T13:44:18.927Z,28
2019-04-22T13:45:17.954Z,28
2019-04-22T13:46:17.891Z,28
2019-04-22T13:47:34.504Z,28
2019-04-22T13:48:38.024Z,29
2019-04-22T13:49:49.206Z,28
2019-04-22T13:50:49.220Z,28
2019-04-22T13:51:51.908Z,28
2019-04-22T13:54:11.934Z,28
2019-04-22T13:54:48.014Z,30
2019-04-22T13:55:44.799Z,28
2019-04-22T13:57:32.390Z,29
2019-04-22T13:58:31.051Z,28
2019-04-22T13:59:26.557Z,27
2019-04-22T14:00:18.394Z,27
2019-04-22T14:01:18.710Z,27
2019-04-22T14:02:18.846Z,27
2019-04-22T14:03:18.399Z,29
2019-04-22T14:04:18.519Z,29
2019-04-22T14:05:19.189Z,27
2019-04-22T14:06:18.600Z,27
2019-04-22T14:07:18.906Z,27
2019-04-22T14:08:19.615Z,27
2019-04-22T14:09:18.530Z,27
2019-04-22T14:10:18.461Z,26
2019-04-22T14:11:27.534Z,27
2019-04-22T14:12:19.745Z,27
2019-04-22T14:13:19.605Z,28
2019-04-22T14:14:19.895Z,27
2019-04-22T14:15:18.168Z,27
2019-04-22T14:16:19.512Z,26
2019-04-22T14:17:18.759Z,26
2019-04-22T14:18:19.055Z,26
2019-04-22T14:19:18.527Z,26
2019-04-22T14:20:18.758Z,28
2019-04-22T14:21:18.833Z,26
2019-04-22T14:22:19.916Z,27
2019-04-22T14:23:18.568Z,27
2019-04-22T14:24:19.772Z,26
2019-04-22T14:25:20.709Z,28
2019-04-22T14:26:19.651Z,27
2019-04-22T14:27:30.276Z,28
2019-04-22T14:28:21.103Z,28
2019-04-22T14:29:19.678Z,28
2019-04-22T14:30:18.908Z,27
2019-04-22T14:31:20.230Z,28
2019-04-22T14:32:23.592Z,27
2019-04-22T14:33:20.186Z,28
2019-04-22T14:34:20.658Z,29
2019-04-22T14:35:19.008Z,30
2019-04-22T14:36:19.225Z,30
2019-04-22T14:37:20.222Z,29
2019-04-22T14:38:19.069Z,28
2019-04-22T14:39:19.835Z,28
2019-04-22T14:40:20.233Z,28
2019-04-22T14:41:35.586Z,29
2019-04-22T14:42:39.238Z,29
2019-04-22T14:43:47.576Z,29
2019-04-22T14:45:47.209Z,29
2019-04-22T14:46:49.046Z,29
2019-04-22T14:47:46.306Z,29
2019-04-22T14:48:45.623Z,29
2019-04-22T14:49:41.661Z,28
2019-04-22T14:50:39.913Z,28
2019-04-22T14:51:36.963Z,30
2019-04-22T14:52:39.308Z,29
2019-04-22T14:53:40.932Z,31
2019-04-22T14:54:34.475Z,29
2019-04-22T14:55:23.649Z,29
2019-04-22T14:56:20.226Z,30
2019-04-22T14:57:21.345Z,29
2019-04-22T14:58:19.966Z,29
2019-04-22T14:59:20.833Z,31
2019-04-22T15:00:20.156Z,29
2019-04-22T15:01:21.077Z,29
2019-04-22T15:02:21.400Z,29
2019-04-22T15:03:21.700Z,29
2019-04-22T15:04:21.236Z,29
2019-04-22T15:05:21.906Z,29
2019-04-22T15:06:22.272Z,30
2019-04-22T15:07:21.072Z,29
2019-04-22T15:08:21.369Z,29
2019-04-22T15:09:21.701Z,29
2019-04-22T15:10:22.075Z,29
2019-04-22T15:11:21.260Z,29
2019-04-22T15:12:29.835Z,28
2019-04-22T15:13:21.177Z,29
2019-04-22T15:14:21.443Z,28
2019-04-22T15:15:21.739Z,28
2019-04-22T15:16:20.683Z,28
2019-04-22T15:17:20.902Z,29
2019-04-22T15:18:21.856Z,29
2019-04-22T15:19:22.089Z,28
2019-04-22T15:20:21.495Z,28
2019-04-22T15:21:20.883Z,29
2019-04-22T15:22:21.018Z,29
2019-04-22T15:23:22.116Z,28
2019-04-22T15:24:21.001Z,28
2019-04-22T15:25:21.041Z,28
2019-04-22T15:26:22.229Z,29
2019-04-22T15:27:22.445Z,28
2019-04-22T15:28:21.674Z,28
2019-04-22T15:29:21.270Z,29
2019-04-22T15:30:21.464Z,29
2019-04-22T15:31:21.625Z,29
2019-04-22T15:32:21.309Z,28
2019-04-22T15:33:21.495Z,28
2019-04-22T15:34:22.573Z,28
2019-04-22T15:35:22.811Z,28
2019-04-22T15:36:22.165Z,29
2019-04-22T15:37:22.275Z,29
2019-04-22T15:38:23.748Z,29
2019-04-22T15:39:22.918Z,28